createdAt,value
2019-04-23T00:00:05.266Z,13.45
2019-04-23T00:02:44.413Z,13.46
2019-04-23T00:05:22.938Z,13.37
2019-04-23T00:10:24.881Z,13.22
2019-04-23T00:12:52.964Z,13.26
2019-04-23T00:15:53.195Z,13.23
2019-04-23T00:18:30.187Z,13.20
2019-04-23T00:20:57.767Z,13.12
2019-04-23T00:23:34.728Z,13.07
2019-04-23T00:28:51.960Z,13.02
2019-04-23T00:33:57.425Z,12.87
2019-04-23T00:36:32.523Z,12.84
2019-04-23T00:38:59.292Z,12.88
2019-04-23T00:41:36.298Z,12.80
2019-04-23T00:49:10.732Z,12.65
2019-04-23T00:51:50.152Z,12.69
2019-04-23T00:54:20.712Z,12.53
2019-04-23T00:56:57.082Z,12.53
2019-04-23T00:59:28.267Z,12.52
2019-04-23T01:01:57.924Z,12.53
2019-04-23T01:04:34.172Z,12.52
2019-04-23T01:07:04.448Z,12.41
2019-04-23T01:09:42.270Z,12.46
2019-04-23T01:12:19.116Z,12.45
2019-04-23T01:14:48.229Z,12.38
2019-04-23T01:17:30.189Z,12.28
2019-04-23T01:20:17.188Z,12.21
2019-04-23T01:22:14.612Z,12.18
2019-04-23T01:25:11.031Z,12.16
2019-04-23T01:28:03.968Z,12.17
2019-04-23T01:30:38.734Z,12.09
2019-04-23T01:33:09.955Z,12.03
2019-04-23T01:35:45.098Z,12.04
2019-04-23T01:38:11.470Z,11.98
2019-04-23T01:41:01.775Z,11.95
2019-04-23T01:43:38.153Z,11.93
2019-04-23T01:45:50.262Z,11.86
2019-04-23T01:48:26.148Z,11.83
2019-04-23T01:50:56.106Z,11.84
2019-04-23T01:53:37.059Z,11.77
2019-04-23T01:56:09.153Z,11.77
2019-04-23T01:58:48.148Z,11.77
2019-04-23T02:01:11.783Z,11.66
2019-04-23T02:03:46.636Z,11.68
2019-04-23T02:06:21.965Z,11.65
2019-04-23T02:08:55.265Z,11.64
2019-04-23T02:11:25.525Z,11.57
2019-04-23T02:13:55.051Z,11.58
2019-04-23T02:16:33.874Z,11.43
2019-04-23T02:19:03.347Z,11.48
2019-04-23T02:21:41.450Z,11.46
2019-04-23T02:24:14.442Z,11.47
2019-04-23T02:26:46.755Z,11.40
2019-04-23T02:29:28.729Z,11.35
2019-04-23T02:34:41.015Z,11.38
2019-04-23T02:37:15.127Z,11.32
2019-04-23T02:39:57.334Z,11.29
2019-04-23T02:50:01.724Z,11.18
2019-04-23T02:52:21.736Z,11.17
2019-04-23T02:54:57.129Z,11.13
2019-04-23T02:57:47.552Z,11.10
2019-04-23T03:02:40.908Z,11.02
2019-04-23T03:05:13.569Z,10.97
2019-04-23T03:10:16.413Z,10.99
2019-04-23T03:13:09.627Z,10.96
2019-04-23T03:16:00.711Z,10.95
2019-04-23T03:18:53.744Z,10.89
2019-04-23T03:24:11.119Z,10.88
2019-04-23T03:27:08.137Z,10.77
2019-04-23T03:29:21.862Z,10.79
2019-04-23T03:35:10.270Z,10.63
2019-04-23T03:39:47.642Z,10.77
2019-04-23T03:42:03.902Z,10.67
2019-04-23T03:44:45.290Z,10.67
2019-04-23T03:47:11.439Z,10.65
2019-04-23T03:59:55.149Z,10.56
2019-04-23T04:05:06.083Z,10.61
2019-04-23T04:07:36.262Z,10.55
2019-04-23T04:10:10.778Z,10.57
2019-04-23T04:12:41.467Z,10.54
2019-04-23T04:15:24.870Z,10.52
2019-04-23T04:17:48.702Z,10.53
2019-04-23T04:20:29.266Z,10.52
2019-04-23T04:23:00.055Z,10.53
2019-04-23T04:28:01.327Z,10.48
2019-04-23T04:33:34.066Z,10.47
2019-04-23T04:36:04.791Z,10.47
2019-04-23T04:41:13.548Z,10.54
2019-04-23T04:48:44.266Z,10.57
2019-04-23T04:56:27.582Z,10.61
2019-04-23T04:58:53.290Z,10.61
2019-04-23T05:01:25.940Z,10.60
2019-04-23T05:03:45.998Z,10.62
2019-04-23T05:06:39.422Z,10.67
2019-04-23T05:09:17.095Z,10.71
2019-04-23T05:14:08.575Z,10.72
2019-04-23T05:16:43.236Z,10.73
2019-04-23T05:19:29.691Z,10.73
2019-04-23T05:24:21.665Z,10.74
2019-04-23T05:26:51.665Z,10.82
2019-04-23T05:29:25.385Z,10.89
2019-04-23T05:31:58.186Z,10.93
2019-04-23T05:37:06.073Z,11.01
2019-04-23T05:42:13.984Z,11.15
2019-04-23T05:44:43.264Z,11.26
2019-04-23T05:47:25.445Z,11.32
2019-04-23T05:49:54.713Z,11.40
2019-04-23T05:52:24.493Z,11.47
2019-04-23T05:55:01.555Z,11.59
2019-04-23T05:57:28.554Z,11.66
2019-04-23T06:00:04.192Z,11.70
2019-04-23T06:02:45.350Z,11.77
2019-04-23T06:05:08.880Z,11.83
2019-04-23T06:07:45.711Z,11.90
2019-04-23T06:10:11.041Z,11.92
2019-04-23T06:12:45.340Z,12.06
2019-04-23T06:15:20.218Z,12.14
2019-04-23T06:17:54.184Z,12.20
2019-04-23T06:20:35.046Z,12.34
2019-04-23T06:23:06.047Z,12.45
2019-04-23T06:28:08.134Z,12.66
2019-04-23T06:33:14.657Z,12.83
2019-04-23T06:35:45.195Z,13.03
2019-04-23T06:40:59.518Z,13.28
2019-04-23T06:43:38.764Z,13.34
2019-04-23T06:46:03.645Z,13.44
2019-04-23T06:48:35.267Z,13.52
2019-04-23T06:51:15.988Z,13.65
2019-04-23T06:53:37.402Z,13.74
2019-04-23T06:56:21.124Z,13.89
2019-04-23T06:58:45.713Z,13.99
2019-04-23T07:01:19.236Z,14.21
2019-04-23T07:04:04.943Z,14.31
2019-04-23T07:09:09.911Z,14.66
2019-04-23T07:11:34.135Z,14.82
2019-04-23T07:13:58.496Z,14.87
2019-04-23T07:19:18.390Z,15.18
2019-04-23T07:21:41.743Z,15.36
2019-04-23T07:24:28.463Z,15.56
2019-04-23T07:26:42.083Z,15.66
2019-04-23T07:29:26.307Z,15.83
2019-04-23T07:34:26.661Z,16.32
2019-04-23T07:37:00.158Z,16.61
2019-04-23T07:42:29.610Z,17.07
2019-04-23T07:45:17.403Z,17.17
2019-04-23T07:48:10.836Z,17.06
2019-04-23T07:53:26.145Z,17.40
2019-04-23T08:03:22.652Z,18.07
2019-04-23T08:05:55.861Z,18.12
2019-04-23T08:13:50.400Z,18.61
2019-04-23T08:21:32.115Z,18.64
2019-04-23T08:24:20.116Z,18.79
2019-04-23T08:27:04.532Z,19.01
2019-04-23T08:29:50.388Z,19.40
2019-04-23T08:34:58.824Z,19.87
2019-04-23T08:37:54.345Z,19.93
2019-04-23T08:42:49.641Z,20.18
2019-04-23T08:50:44.939Z,20.04
2019-04-23T09:01:06.695Z,20.58
2019-04-23T09:03:34.421Z,20.86
2019-04-23T09:08:39.311Z,21.21
2019-04-23T09:11:30.456Z,21.64
2019-04-23T09:16:22.140Z,22.91
2019-04-23T09:18:53.112Z,23.06
2019-04-23T09:21:30.985Z,22.92
2019-04-23T09:23:58.508Z,23.16
2019-04-23T09:26:36.658Z,23.39
2019-04-23T09:29:04.607Z,23.32
2019-04-23T09:32:07.635Z,23.03
2019-04-23T09:34:43.152Z,22.99
2019-04-23T09:37:40.480Z,23.14
2019-04-23T09:40:46.886Z,23.26
2019-04-23T09:43:12.196Z,23.21
2019-04-23T09:46:09.690Z,23.38
2019-04-23T09:48:47.164Z,23.15
2019-04-23T09:51:15.618Z,23.54
2019-04-23T09:53:40.013Z,23.80
2019-04-23T09:56:14.226Z,23.70
2019-04-23T09:58:51.822Z,23.71
2019-04-23T10:03:54.720Z,23.02
2019-04-23T10:06:19.039Z,23.13
2019-04-23T10:08:51.959Z,23.46
2019-04-23T10:11:19.914Z,23.60
2019-04-23T10:13:52.601Z,23.48
2019-04-23T10:16:27.617Z,23.26
2019-04-23T10:18:57.376Z,23.56
2019-04-23T10:21:29.302Z,23.46
2019-04-23T10:24:01.396Z,23.87
2019-04-23T10:26:34.233Z,24.07
2019-04-23T10:29:11.792Z,24.53
2019-04-23T10:31:43.923Z,25.14
2019-04-23T10:34:19.044Z,25.79
2019-04-23T10:36:51.507Z,26.13
2019-04-23T10:39:29.588Z,26.13
2019-04-23T10:41:57.591Z,26.10
2019-04-23T10:44:55.425Z,26.06
2019-04-23T10:48:26.565Z,26.01
2019-04-23T10:53:37.862Z,25.91
2019-04-23T10:58:36.565Z,25.98
2019-04-23T11:01:14.905Z,26.16
2019-04-23T11:04:02.447Z,26.02
2019-04-23T11:06:23.521Z,25.69
2019-04-23T11:08:48.250Z,25.80
2019-04-23T11:11:30.653Z,25.34
2019-04-23T11:14:01.194Z,25.08
2019-04-23T11:16:49.551Z,24.67
2019-04-23T11:19:15.631Z,24.61
2019-04-23T11:21:40.770Z,24.15
2019-04-23T11:24:36.060Z,23.97
2019-04-23T11:29:27.320Z,24.06
2019-04-23T11:31:52.316Z,23.89
2019-04-23T11:34:50.442Z,23.68
2019-04-23T11:37:03.389Z,23.78
2019-04-23T11:39:39.780Z,23.87
2019-04-23T11:42:22.911Z,23.86
2019-04-23T11:47:42.507Z,24.02
2019-04-23T11:54:53.507Z,24.14
2019-04-23T12:02:50.079Z,25.07
2019-04-23T12:05:54.715Z,25.28
2019-04-23T12:11:49.766Z,25.28
2019-04-23T12:14:21.894Z,25.20
2019-04-23T12:29:49.090Z,25.94
2019-04-23T12:32:42.547Z,26.10
2019-04-23T12:37:45.007Z,26.00
2019-04-23T12:50:45.022Z,26.16
2019-04-23T12:53:10.324Z,26.22
2019-04-23T12:55:41.722Z,26.62
2019-04-23T12:58:19.290Z,26.54
2019-04-23T13:05:49.120Z,26.14
2019-04-23T13:08:33.603Z,26.36
2019-04-23T13:10:57.278Z,26.78
2019-04-23T13:16:03.555Z,26.33
2019-04-23T13:18:38.135Z,26.45
2019-04-23T13:21:31.423Z,26.48
2019-04-23T13:23:40.991Z,26.00
2019-04-23T13:26:11.770Z,26.00
2019-04-23T13:28:51.228Z,25.76
2019-04-23T13:31:22.141Z,25.42
2019-04-23T13:33:58.645Z,25.53
2019-04-23T13:36:36.255Z,25.62
2019-04-23T13:39:10.641Z,25.64
2019-04-23T13:41:52.110Z,25.59
2019-04-23T13:44:08.436Z,25.60
2019-04-23T13:46:40.542Z,25.72
2019-04-23T13:49:18.381Z,25.84
2019-04-23T13:51:54.979Z,26.17
2019-04-23T13:54:46.454Z,26.20
2019-04-23T13:59:52.270Z,26.42
2019-04-23T14:02:17.057Z,26.53
2019-04-23T14:05:06.288Z,26.24
2019-04-23T14:07:50.959Z,26.20
2019-04-23T14:12:53.426Z,26.49
2019-04-23T14:18:17.002Z,26.29
2019-04-23T14:20:28.095Z,26.25
2019-04-23T14:23:09.430Z,26.36
2019-04-23T14:25:40.077Z,26.44
2019-04-23T14:30:46.680Z,26.54
2019-04-23T14:33:20.112Z,26.72
2019-04-23T14:35:44.963Z,26.86
2019-04-23T14:41:05.246Z,27.04
2019-04-23T14:43:31.465Z,27.26
2019-04-23T14:49:04.159Z,27.46
2019-04-23T14:54:12.867Z,26.91
2019-04-23T14:56:46.363Z,26.94
2019-04-23T14:59:10.652Z,26.72
2019-04-23T15:04:28.941Z,25.71
2019-04-23T15:07:07.533Z,25.38
2019-04-23T15:09:33.884Z,25.38
2019-04-23T15:12:09.989Z,25.37
2019-04-23T15:14:45.951Z,25.22
2019-04-23T15:17:13.141Z,24.98
2019-04-23T15:19:49.344Z,24.94
2019-04-23T15:22:20.046Z,24.77
2019-04-23T15:27:45.307Z,24.87
2019-04-23T15:28:03.939Z,25.08
2019-04-23T15:29:52.582Z,25.20
2019-04-23T15:32:44.172Z,25.14
2019-04-23T15:35:16.510Z,24.75
2019-04-23T15:37:58.243Z,24.81
2019-04-23T15:40:15.222Z,24.79
2019-04-23T15:42:53.833Z,24.65
2019-04-23T15:47:58.807Z,24.41
2019-04-23T15:50:28.383Z,24.37
2019-04-23T15:52:58.871Z,24.32
2019-04-23T15:55:27.681Z,24.16
2019-04-23T16:00:36.632Z,23.68
2019-04-23T16:02:43.431Z,23.37
2019-04-23T16:05:16.884Z,23.36
2019-04-23T16:08:07.468Z,23.16
2019-04-23T16:10:58.693Z,22.99
2019-04-23T16:13:32.460Z,22.91
2019-04-23T16:15:59.571Z,23.00
2019-04-23T16:18:45.308Z,23.04
2019-04-23T16:23:43.843Z,22.99
2019-04-23T16:26:24.238Z,22.93
2019-04-23T16:29:23.142Z,22.85
2019-04-23T16:36:54.765Z,22.67
2019-04-23T16:39:22.222Z,22.55
2019-04-23T16:42:02.074Z,22.60
2019-04-23T16:44:38.202Z,22.65
2019-04-23T16:47:21.718Z,22.63
2019-04-23T16:49:57.586Z,22.62
2019-04-23T16:52:07.933Z,22.66
2019-04-23T16:54:51.812Z,22.76
2019-04-23T17:00:15.167Z,22.89
2019-04-23T17:02:24.605Z,22.85
2019-04-23T17:04:57.946Z,22.89
2019-04-23T17:07:24.147Z,22.89
2019-04-23T17:10:09.066Z,22.91
2019-04-23T17:12:38.687Z,22.93
2019-04-23T17:15:27.390Z,22.91
2019-04-23T17:17:38.057Z,22.82
2019-04-23T17:20:16.254Z,22.84
2019-04-23T17:22:47.988Z,22.83
2019-04-23T17:25:17.604Z,22.89
2019-04-23T17:28:09.006Z,22.83
2019-04-23T17:30:28.129Z,22.83
2019-04-23T17:33:13.494Z,22.88
2019-04-23T17:36:07.108Z,22.75
2019-04-23T17:38:37.674Z,22.69
2019-04-23T17:41:29.330Z,22.54
2019-04-23T17:44:01.442Z,22.46
2019-04-23T17:46:32.405Z,22.40
2019-04-23T17:49:04.356Z,22.34
2019-04-23T17:51:34.489Z,22.26
2019-04-23T17:54:17.374Z,22.19
2019-04-23T17:56:55.933Z,22.17
2019-04-23T17:59:24.721Z,22.07
2019-04-23T18:02:24.281Z,22.05
2019-04-23T18:04:27.458Z,21.96
2019-04-23T18:06:56.327Z,21.93
2019-04-23T18:09:37.179Z,21.89
2019-04-23T18:12:16.878Z,21.81
2019-04-23T18:14:30.845Z,21.74
2019-04-23T18:17:12.889Z,21.60
2019-04-23T18:20:05.290Z,21.57
2019-04-23T18:28:00.601Z,21.46
2019-04-23T18:31:09.602Z,21.32
2019-04-23T18:36:26.192Z,21.10
2019-04-23T18:39:04.900Z,20.99
2019-04-23T18:41:35.220Z,20.94
2019-04-23T18:44:18.484Z,20.85
2019-04-23T18:46:42.162Z,20.78
2019-04-23T18:49:33.142Z,20.66
2019-04-23T18:51:51.264Z,20.63
2019-04-23T18:54:23.555Z,20.58
2019-04-23T18:59:37.276Z,20.49
2019-04-23T19:02:20.049Z,20.45
2019-04-23T19:05:03.485Z,20.42
2019-04-23T19:07:54.778Z,20.35
2019-04-23T19:10:31.859Z,20.31
2019-04-23T19:13:09.677Z,20.20
2019-04-23T19:18:18.721Z,20.11
2019-04-23T19:23:36.733Z,19.98
2019-04-23T19:26:00.096Z,19.88
2019-04-23T19:31:26.299Z,19.71
2019-04-23T19:34:21.410Z,19.64
2019-04-23T19:41:55.685Z,19.45
2019-04-23T19:47:06.904Z,19.35
2019-04-23T19:49:28.280Z,19.25
2019-04-23T19:57:22.816Z,19.05
2019-04-23T19:59:46.332Z,18.99
2019-04-23T20:02:21.832Z,18.94
2019-04-23T20:04:50.785Z,18.92
2019-04-23T20:09:51.606Z,18.81
2019-04-23T20:12:28.252Z,18.84
2019-04-23T20:15:07.319Z,18.82
2019-04-23T20:20:26.469Z,18.66
2019-04-23T20:22:48.485Z,18.56
2019-04-23T20:27:52.313Z,18.58
2019-04-23T20:36:00.660Z,18.34
2019-04-23T20:41:14.675Z,18.30
2019-04-23T20:43:46.791Z,18.30
2019-04-23T20:46:06.574Z,18.24
2019-04-23T20:48:48.962Z,18.11
2019-04-23T20:51:18.736Z,18.16
2019-04-23T20:56:25.405Z,18.11
2019-04-23T21:01:38.609Z,18.03
2019-04-23T21:04:13.764Z,17.98
2019-04-23T21:06:48.803Z,17.95
2019-04-23T21:12:04.888Z,17.94
2019-04-23T21:14:41.429Z,17.86
2019-04-23T21:17:05.373Z,17.91
2019-04-23T21:19:30.791Z,17.86
2019-04-23T21:22:09.076Z,17.77
2019-04-23T21:24:42.865Z,17.73
2019-04-23T21:27:21.703Z,17.73
2019-04-23T21:32:33.691Z,17.65
2019-04-23T21:35:04.544Z,17.58
2019-04-23T21:37:49.732Z,17.66
2019-04-23T21:41:00.983Z,17.63
2019-04-23T21:43:25.001Z,17.62
2019-04-23T21:46:02.464Z,17.50
2019-04-23T21:48:42.037Z,17.46
2019-04-23T21:51:15.810Z,17.39
2019-04-23T21:53:32.879Z,17.35
2019-04-23T21:58:49.162Z,17.27
2019-04-23T22:01:28.088Z,17.26
2019-04-23T22:16:53.924Z,17.08
2019-04-23T22:21:50.919Z,17.00
2019-04-23T22:24:12.242Z,16.94
2019-04-23T22:27:02.799Z,17.00
2019-04-23T22:32:04.390Z,17.05
2019-04-23T22:34:39.853Z,16.93
2019-04-23T22:37:17.847Z,16.87
2019-04-23T22:39:46.960Z,16.80
2019-04-23T22:42:36.266Z,16.81
2019-04-23T22:44:59.146Z,16.73
2019-04-23T22:47:28.129Z,16.68
2019-04-23T22:50:02.676Z,16.74
2019-04-23T22:52:31.487Z,16.65
2019-04-23T22:55:07.902Z,16.72
2019-04-23T22:57:59.908Z,16.75
2019-04-23T23:00:13.369Z,16.63
2019-04-23T23:02:58.339Z,16.64
2019-04-23T23:05:53.815Z,16.62
2019-04-23T23:08:11.461Z,16.67
2019-04-23T23:10:44.650Z,16.56
2019-04-23T23:13:10.976Z,16.51
2019-04-23T23:15:57.511Z,16.45
2019-04-23T23:18:40.555Z,16.40
2019-04-23T23:23:34.664Z,16.36
2019-04-23T23:28:38.110Z,16.40
2019-04-23T23:31:07.055Z,16.39
2019-04-23T23:39:05.522Z,16.48
2019-04-23T23:44:08.155Z,16.80
2019-04-23T23:47:16.288Z,16.77
2019-04-23T23:49:08.269Z,16.92
2019-04-23T23:51:39.877Z,16.99
2019-04-23T23:54:08.197Z,17.06
2019-04-23T23:56:39.116Z,17.07
2019-04-23T23:59:27.024Z,17.21
